Menahga, MN

7:05 AM CST on February 14, 2016 (GMT -0600)
Pyburn Addition | | Change Station
CLOSE
Current Station
Personal Weather Station
Location: Menahga, MN
Elevation: 1444 ft
Nearby Weather Stations

Elev 1444 ft 46.84 °N, 95.09 °W | Updated 5 seconds ago

Overcast
Overcast
9.0 °F
Feels Like 9 °F
N
1.3
Wind Variable Wind from SW
Gusts 2.5 mph

Today
High -- | Low -- °F
--% Chance of Precip.
Yesterday
High -- | Low -- °F
Precip. -- in
Pressure 30.05 in
Visibility 3.0 miles
Clouds Overcast 4400 ft
Windchill 9 °F
Dew Point -4 °F
Humidity 55%
Rainfall 0.00 in
Snow Depth Not available.
7:26 AM 5:42 PM
Waxing Crescent, 41% visible
METAR KPKD 141253Z AUTO 15011KT 3SM -SN OVC044 M13/M17 A2994 RMK AO2 SNB42 SLP174 P0000 T11281167
Pressure 30.05 in
Visibility 3.0 miles
Clouds Overcast 4400 ft
Windchill 9 °F
Dew Point -4 °F
Humidity 55%
Rainfall 0.00 in
Snow Depth Not available.
7:26 AM 5:42 PM
Waxing Crescent, 41% visible
METAR KPKD 141253Z AUTO 15011KT 3SM -SN OVC044 M13/M17 A2994 RMK AO2 SNB42 SLP174 P0000 T11281167

10-Day Weather Forecast

Almanac

Astronomy

Feb. 14, 2016 Rise Set
Actual Time
Civil Twilight
Nautical Twilight
Astronomical Twilight
Moon
Length of Visible Light
Length of Day
Tomorrow will be .
, % of the Moon is Illuminated

Today's Extremes

State Highs State Lows

Community

WunderPhotos

Upload Photos

1,892,777 photos uploaded!

WunderBlog® & News

Nearby

Air Quality

  Air Quality AQ Index Pollutant
Not available.

Snow Depth

Station Depth Elevation

Earthquake Activity

City Distance Mag. Time & Date
Minimum magnitude displayed is 2.5.

Coastal Water Temperatures

Place Temperature

Stations

Nearby Weather Stations

Station Location Temp. Windchill Dew Point Humidity Wind Precip. Elev Updated Type
                   

Watches & Warnings

There are currently no watches in effect.